sensor_id;sensor_type;location;lat;lon;timestamp;P1;durP1;ratioP1;P2;durP2;ratioP2
5135;SDS011;2586;48.710;9.202;2023-03-04T00:01:25;48.83;;;23.50;;
5135;SDS011;2586;48.710;9.202;2023-03-04T00:03:50;46.67;;;20.87;;
5135;SDS011;2586;48.710;9.202;2023-03-04T00:06:16;46.10;;;22.07;;
5135;SDS011;2586;48.710;9.202;2023-03-04T00:08:42;44.33;;;22.27;;
5135;SDS011;2586;48.710;9.202;2023-03-04T00:11:07;43.20;;;19.33;;
5135;SDS011;2586;48.710;9.202;2023-03-04T00:13:33;43.37;;;21.27;;
5135;SDS011;2586;48.710;9.202;2023-03-04T00:15:58;46.70;;;21.17;;
5135;SDS011;2586;48.710;9.202;2023-03-04T00:18:24;47.90;;;22.03;;
5135;SDS011;2586;48.710;9.202;2023-03-04T00:20:49;45.47;;;22.37;;
5135;SDS011;2586;48.710;9.202;2023-03-04T00:23:15;46.27;;;23.70;;
5135;SDS011;2586;48.710;9.202;2023-03-04T00:25:41;50.00;;;23.97;;
5135;SDS011;2586;48.710;9.202;2023-03-04T00:28:06;51.00;;;23.70;;
5135;SDS011;2586;48.710;9.202;2023-03-04T00:30:32;51.80;;;23.90;;
5135;SDS011;2586;48.710;9.202;2023-03-04T00:32:57;53.40;;;22.50;;
5135;SDS011;2586;48.710;9.202;2023-03-04T00:35:23;45.17;;;21.90;;
5135;SDS011;2586;48.710;9.202;2023-03-04T00:37:48;50.07;;;21.70;;
5135;SDS011;2586;48.710;9.202;2023-03-04T00:40:14;55.67;;;22.23;;
5135;SDS011;2586;48.710;9.202;2023-03-04T00:42:40;54.27;;;22.67;;
5135;SDS011;2586;48.710;9.202;2023-03-04T00:45:06;52.87;;;24.27;;
5135;SDS011;2586;48.710;9.202;2023-03-04T00:47:32;48.10;;;21.00;;
5135;SDS011;2586;48.710;9.202;2023-03-04T00:49:57;41.20;;;21.63;;
5135;SDS011;2586;48.710;9.202;2023-03-04T00:52:23;48.20;;;22.40;;
5135;SDS011;2586;48.710;9.202;2023-03-04T00:54:48;44.03;;;22.33;;
5135;SDS011;2586;48.710;9.202;2023-03-04T00:57:14;49.87;;;22.20;;
5135;SDS011;2586;48.710;9.202;2023-03-04T00:59:39;50.27;;;22.70;;
5135;SDS011;2586;48.710;9.202;2023-03-04T01:02:07;49.20;;;24.17;;
5135;SDS011;2586;48.710;9.202;2023-03-04T01:04:33;48.97;;;22.30;;
5135;SDS011;2586;48.710;9.202;2023-03-04T01:06:59;51.03;;;22.60;;
5135;SDS011;2586;48.710;9.202;2023-03-04T01:09:24;47.90;;;21.40;;
5135;SDS011;2586;48.710;9.202;2023-03-04T01:11:51;48.93;;;21.73;;
5135;SDS011;2586;48.710;9.202;2023-03-04T01:14:17;46.03;;;22.17;;
5135;SDS011;2586;48.710;9.202;2023-03-04T01:16:42;47.10;;;22.70;;
5135;SDS011;2586;48.710;9.202;2023-03-04T01:19:08;38.13;;;20.30;;
5135;SDS011;2586;48.710;9.202;2023-03-04T01:21:34;49.27;;;22.70;;
5135;SDS011;2586;48.710;9.202;2023-03-04T01:23:59;40.17;;;19.10;;
5135;SDS011;2586;48.710;9.202;2023-03-04T01:26:25;54.07;;;23.20;;
5135;SDS011;2586;48.710;9.202;2023-03-04T01:28:50;47.40;;;19.83;;
5135;SDS011;2586;48.710;9.202;2023-03-04T01:31:16;45.70;;;21.73;;
5135;SDS011;2586;48.710;9.202;2023-03-04T01:33:41;48.63;;;21.50;;
5135;SDS011;2586;48.710;9.202;2023-03-04T01:36:07;45.23;;;21.77;;
5135;SDS011;2586;48.710;9.202;2023-03-04T01:38:33;44.50;;;23.20;;
5135;SDS011;2586;48.710;9.202;2023-03-04T01:40:58;50.70;;;22.03;;
5135;SDS011;2586;48.710;9.202;2023-03-04T01:43:24;49.73;;;21.00;;
5135;SDS011;2586;48.710;9.202;2023-03-04T01:45:53;48.10;;;21.90;;
5135;SDS011;2586;48.710;9.202;2023-03-04T01:48:33;49.20;;;22.30;;
5135;SDS011;2586;48.710;9.202;2023-03-04T01:51:05;49.00;;;23.47;;
5135;SDS011;2586;48.710;9.202;2023-03-04T01:53:36;52.57;;;24.07;;
5135;SDS011;2586;48.710;9.202;2023-03-04T01:56:04;51.77;;;21.50;;
5135;SDS011;2586;48.710;9.202;2023-03-04T01:58:41;47.20;;;20.70;;
5135;SDS011;2586;48.710;9.202;2023-03-04T02:01:08;48.43;;;23.70;;
5135;SDS011;2586;48.710;9.202;2023-03-04T02:03:35;48.53;;;21.97;;
5135;SDS011;2586;48.710;9.202;2023-03-04T02:06:01;48.63;;;22.37;;
5135;SDS011;2586;48.710;9.202;2023-03-04T02:08:27;42.30;;;20.33;;
5135;SDS011;2586;48.710;9.202;2023-03-04T02:10:53;52.63;;;21.77;;
5135;SDS011;2586;48.710;9.202;2023-03-04T02:13:19;48.20;;;21.13;;
5135;SDS011;2586;48.710;9.202;2023-03-04T02:15:45;42.03;;;21.30;;
5135;SDS011;2586;48.710;9.202;2023-03-04T02:18:16;61.07;;;21.63;;
5135;SDS011;2586;48.710;9.202;2023-03-04T02:26:14;48.57;;;21.03;;
5135;SDS011;2586;48.710;9.202;2023-03-04T02:28:43;45.37;;;21.10;;
5135;SDS011;2586;48.710;9.202;2023-03-04T02:31:23;51.80;;;22.73;;
5135;SDS011;2586;48.710;9.202;2023-03-04T02:33:52;53.20;;;22.83;;
5135;SDS011;2586;48.710;9.202;2023-03-04T02:36:19;49.73;;;21.23;;
5135;SDS011;2586;48.710;9.202;2023-03-04T02:38:46;43.67;;;20.53;;
5135;SDS011;2586;48.710;9.202;2023-03-04T02:41:13;50.20;;;22.57;;
5135;SDS011;2586;48.710;9.202;2023-03-04T02:43:43;45.53;;;22.27;;
5135;SDS011;2586;48.710;9.202;2023-03-04T02:46:11;49.57;;;20.67;;
5135;SDS011;2586;48.710;9.202;2023-03-04T02:48:37;41.53;;;19.87;;
5135;SDS011;2586;48.710;9.202;2023-03-04T02:51:03;48.30;;;21.23;;
5135;SDS011;2586;48.710;9.202;2023-03-04T02:53:29;44.77;;;20.63;;
5135;SDS011;2586;48.710;9.202;2023-03-04T02:55:54;43.47;;;19.50;;
5135;SDS011;2586;48.710;9.202;2023-03-04T02:58:20;42.83;;;21.17;;
5135;SDS011;2586;48.710;9.202;2023-03-04T03:00:46;38.90;;;19.80;;
5135;SDS011;2586;48.710;9.202;2023-03-04T03:03:11;37.30;;;18.47;;
5135;SDS011;2586;48.710;9.202;2023-03-04T03:05:37;44.80;;;20.53;;
5135;SDS011;2586;48.710;9.202;2023-03-04T03:08:03;41.33;;;18.97;;
5135;SDS011;2586;48.710;9.202;2023-03-04T03:10:29;47.17;;;19.07;;
5135;SDS011;2586;48.710;9.202;2023-03-04T03:12:55;48.63;;;19.67;;
5135;SDS011;2586;48.710;9.202;2023-03-04T03:15:21;46.77;;;18.33;;
5135;SDS011;2586;48.710;9.202;2023-03-04T03:17:46;41.80;;;19.90;;
5135;SDS011;2586;48.710;9.202;2023-03-04T03:20:12;42.90;;;20.80;;
5135;SDS011;2586;48.710;9.202;2023-03-04T03:22:38;43.03;;;17.33;;
5135;SDS011;2586;48.710;9.202;2023-03-04T03:25:04;39.87;;;17.83;;
5135;SDS011;2586;48.710;9.202;2023-03-04T03:27:31;52.13;;;17.87;;
5135;SDS011;2586;48.710;9.202;2023-03-04T03:29:56;36.73;;;18.93;;
5135;SDS011;2586;48.710;9.202;2023-03-04T03:32:22;40.63;;;18.80;;
5135;SDS011;2586;48.710;9.202;2023-03-04T03:34:48;38.47;;;18.00;;
5135;SDS011;2586;48.710;9.202;2023-03-04T03:37:14;34.50;;;18.60;;
5135;SDS011;2586;48.710;9.202;2023-03-04T03:39:39;38.20;;;19.50;;
5135;SDS011;2586;48.710;9.202;2023-03-04T03:42:05;38.20;;;18.53;;
5135;SDS011;2586;48.710;9.202;2023-03-04T03:44:30;41.80;;;18.73;;
5135;SDS011;2586;48.710;9.202;2023-03-04T03:46:56;43.30;;;20.37;;
5135;SDS011;2586;48.710;9.202;2023-03-04T03:49:22;34.53;;;18.20;;
5135;SDS011;2586;48.710;9.202;2023-03-04T03:51:47;38.83;;;17.10;;
5135;SDS011;2586;48.710;9.202;2023-03-04T03:54:13;44.63;;;18.80;;
5135;SDS011;2586;48.710;9.202;2023-03-04T03:56:38;44.40;;;19.00;;
5135;SDS011;2586;48.710;9.202;2023-03-04T03:59:04;43.90;;;20.13;;
5135;SDS011;2586;48.710;9.202;2023-03-04T04:01:30;42.50;;;19.03;;
5135;SDS011;2586;48.710;9.202;2023-03-04T04:03:55;46.43;;;18.27;;
5135;SDS011;2586;48.710;9.202;2023-03-04T04:06:21;36.30;;;19.23;;
5135;SDS011;2586;48.710;9.202;2023-03-04T04:08:46;44.23;;;19.80;;
5135;SDS011;2586;48.710;9.202;2023-03-04T04:11:12;39.70;;;16.67;;
5135;SDS011;2586;48.710;9.202;2023-03-04T04:13:38;45.93;;;19.47;;
5135;SDS011;2586;48.710;9.202;2023-03-04T04:16:04;41.13;;;19.70;;
5135;SDS011;2586;48.710;9.202;2023-03-04T04:18:30;37.03;;;19.30;;
5135;SDS011;2586;48.710;9.202;2023-03-04T04:20:55;46.93;;;21.80;;
5135;SDS011;2586;48.710;9.202;2023-03-04T04:23:21;45.67;;;21.40;;
5135;SDS011;2586;48.710;9.202;2023-03-04T04:25:47;44.93;;;19.67;;
5135;SDS011;2586;48.710;9.202;2023-03-04T04:28:12;43.87;;;20.13;;
5135;SDS011;2586;48.710;9.202;2023-03-04T04:30:38;46.00;;;17.43;;
5135;SDS011;2586;48.710;9.202;2023-03-04T04:33:04;37.53;;;17.10;;
5135;SDS011;2586;48.710;9.202;2023-03-04T04:35:32;42.60;;;19.87;;
5135;SDS011;2586;48.710;9.202;2023-03-04T04:38:00;36.13;;;17.23;;
5135;SDS011;2586;48.710;9.202;2023-03-04T04:40:26;38.53;;;18.07;;
5135;SDS011;2586;48.710;9.202;2023-03-04T04:42:54;41.80;;;19.20;;
5135;SDS011;2586;48.710;9.202;2023-03-04T04:45:20;50.27;;;18.63;;
5135;SDS011;2586;48.710;9.202;2023-03-04T04:47:48;45.03;;;19.40;;
5135;SDS011;2586;48.710;9.202;2023-03-04T04:50:15;46.53;;;19.50;;
5135;SDS011;2586;48.710;9.202;2023-03-04T04:52:40;43.57;;;19.67;;
5135;SDS011;2586;48.710;9.202;2023-03-04T04:55:06;38.57;;;17.43;;
5135;SDS011;2586;48.710;9.202;2023-03-04T04:57:33;40.83;;;18.63;;
5135;SDS011;2586;48.710;9.202;2023-03-04T04:59:59;42.17;;;18.87;;
5135;SDS011;2586;48.710;9.202;2023-03-04T05:02:24;46.07;;;17.13;;
5135;SDS011;2586;48.710;9.202;2023-03-04T05:04:50;32.67;;;17.90;;
5135;SDS011;2586;48.710;9.202;2023-03-04T05:07:16;39.57;;;18.90;;
5135;SDS011;2586;48.710;9.202;2023-03-04T05:09:41;43.47;;;19.20;;
5135;SDS011;2586;48.710;9.202;2023-03-04T05:12:07;37.30;;;18.70;;
5135;SDS011;2586;48.710;9.202;2023-03-04T05:14:32;43.93;;;19.53;;
5135;SDS011;2586;48.710;9.202;2023-03-04T05:16:58;41.97;;;19.33;;
5135;SDS011;2586;48.710;9.202;2023-03-04T05:19:24;38.67;;;19.50;;
5135;SDS011;2586;48.710;9.202;2023-03-04T05:21:49;45.70;;;21.13;;
5135;SDS011;2586;48.710;9.202;2023-03-04T05:24:15;34.13;;;16.43;;
5135;SDS011;2586;48.710;9.202;2023-03-04T05:26:40;36.40;;;17.73;;
5135;SDS011;2586;48.710;9.202;2023-03-04T05:29:06;45.10;;;19.70;;
5135;SDS011;2586;48.710;9.202;2023-03-04T05:31:31;38.33;;;18.23;;
5135;SDS011;2586;48.710;9.202;2023-03-04T05:33:57;38.93;;;17.27;;
5135;SDS011;2586;48.710;9.202;2023-03-04T05:36:23;40.97;;;18.07;;
5135;SDS011;2586;48.710;9.202;2023-03-04T05:38:48;42.90;;;19.90;;
5135;SDS011;2586;48.710;9.202;2023-03-04T05:41:14;35.53;;;16.80;;
5135;SDS011;2586;48.710;9.202;2023-03-04T05:43:42;37.47;;;17.03;;
5135;SDS011;2586;48.710;9.202;2023-03-04T05:46:11;38.27;;;17.73;;
5135;SDS011;2586;48.710;9.202;2023-03-04T05:48:38;40.33;;;19.13;;
5135;SDS011;2586;48.710;9.202;2023-03-04T05:51:04;39.30;;;18.53;;
5135;SDS011;2586;48.710;9.202;2023-03-04T05:53:30;45.80;;;19.67;;
5135;SDS011;2586;48.710;9.202;2023-03-04T05:55:55;37.50;;;19.23;;
5135;SDS011;2586;48.710;9.202;2023-03-04T05:58:23;41.30;;;17.50;;
5135;SDS011;2586;48.710;9.202;2023-03-04T06:00:49;45.83;;;18.47;;
5135;SDS011;2586;48.710;9.202;2023-03-04T06:03:16;40.40;;;19.23;;
5135;SDS011;2586;48.710;9.202;2023-03-04T06:05:43;32.77;;;18.10;;
5135;SDS011;2586;48.710;9.202;2023-03-04T06:08:09;35.00;;;17.10;;
5135;SDS011;2586;48.710;9.202;2023-03-04T06:10:36;36.40;;;17.43;;
5135;SDS011;2586;48.710;9.202;2023-03-04T06:13:03;36.67;;;18.00;;
5135;SDS011;2586;48.710;9.202;2023-03-04T06:15:29;32.70;;;16.70;;
5135;SDS011;2586;48.710;9.202;2023-03-04T06:17:55;49.90;;;17.23;;
5135;SDS011;2586;48.710;9.202;2023-03-04T06:20:20;36.70;;;16.40;;
5135;SDS011;2586;48.710;9.202;2023-03-04T06:22:46;38.97;;;17.50;;
5135;SDS011;2586;48.710;9.202;2023-03-04T06:25:12;48.70;;;18.27;;
5135;SDS011;2586;48.710;9.202;2023-03-04T06:27:37;35.03;;;16.20;;
5135;SDS011;2586;48.710;9.202;2023-03-04T06:30:03;38.53;;;17.90;;
5135;SDS011;2586;48.710;9.202;2023-03-04T06:32:29;38.70;;;17.97;;
5135;SDS011;2586;48.710;9.202;2023-03-04T06:34:55;40.07;;;17.83;;
5135;SDS011;2586;48.710;9.202;2023-03-04T06:37:20;42.57;;;17.40;;
5135;SDS011;2586;48.710;9.202;2023-03-04T06:39:46;40.63;;;17.10;;
5135;SDS011;2586;48.710;9.202;2023-03-04T06:42:12;33.60;;;16.57;;
5135;SDS011;2586;48.710;9.202;2023-03-04T06:44:38;39.57;;;16.30;;
5135;SDS011;2586;48.710;9.202;2023-03-04T06:47:04;43.50;;;20.00;;
5135;SDS011;2586;48.710;9.202;2023-03-04T06:49:29;45.10;;;19.03;;
5135;SDS011;2586;48.710;9.202;2023-03-04T06:55:17;35.57;;;18.13;;
5135;SDS011;2586;48.710;9.202;2023-03-04T06:57:43;40.10;;;17.90;;
5135;SDS011;2586;48.710;9.202;2023-03-04T07:00:09;40.57;;;16.97;;
5135;SDS011;2586;48.710;9.202;2023-03-04T07:02:35;39.80;;;18.37;;
5135;SDS011;2586;48.710;9.202;2023-03-04T07:05:01;43.97;;;19.20;;
5135;SDS011;2586;48.710;9.202;2023-03-04T07:07:26;39.73;;;17.50;;
5135;SDS011;2586;48.710;9.202;2023-03-04T07:09:52;41.23;;;19.00;;
5135;SDS011;2586;48.710;9.202;2023-03-04T07:12:17;42.17;;;19.97;;
5135;SDS011;2586;48.710;9.202;2023-03-04T07:14:43;44.60;;;19.17;;
5135;SDS011;2586;48.710;9.202;2023-03-04T07:17:08;40.50;;;18.47;;
5135;SDS011;2586;48.710;9.202;2023-03-04T07:19:34;46.23;;;20.17;;
5135;SDS011;2586;48.710;9.202;2023-03-04T07:22:00;40.83;;;19.87;;
5135;SDS011;2586;48.710;9.202;2023-03-04T07:24:25;37.10;;;17.03;;
5135;SDS011;2586;48.710;9.202;2023-03-04T07:26:51;43.73;;;19.50;;
5135;SDS011;2586;48.710;9.202;2023-03-04T07:29:16;40.10;;;18.53;;
5135;SDS011;2586;48.710;9.202;2023-03-04T07:31:42;37.57;;;19.30;;
5135;SDS011;2586;48.710;9.202;2023-03-04T07:34:09;37.30;;;17.93;;
5135;SDS011;2586;48.710;9.202;2023-03-04T07:36:38;43.37;;;18.23;;
5135;SDS011;2586;48.710;9.202;2023-03-04T07:39:05;37.27;;;17.67;;
5135;SDS011;2586;48.710;9.202;2023-03-04T07:41:31;35.10;;;16.60;;
5135;SDS011;2586;48.710;9.202;2023-03-04T07:44:00;35.83;;;17.10;;
5135;SDS011;2586;48.710;9.202;2023-03-04T07:46:26;31.33;;;16.30;;
5135;SDS011;2586;48.710;9.202;2023-03-04T07:48:54;34.93;;;16.43;;
5135;SDS011;2586;48.710;9.202;2023-03-04T07:51:21;37.07;;;15.83;;
5135;SDS011;2586;48.710;9.202;2023-03-04T07:53:49;33.20;;;17.00;;
5135;SDS011;2586;48.710;9.202;2023-03-04T07:56:21;36.03;;;18.23;;
5135;SDS011;2586;48.710;9.202;2023-03-04T07:58:48;39.50;;;17.87;;
5135;SDS011;2586;48.710;9.202;2023-03-04T08:01:17;36.30;;;17.47;;
5135;SDS011;2586;48.710;9.202;2023-03-04T08:03:47;31.90;;;16.10;;
5135;SDS011;2586;48.710;9.202;2023-03-04T08:06:15;34.77;;;15.83;;
5135;SDS011;2586;48.710;9.202;2023-03-04T08:08:41;32.43;;;15.93;;
5135;SDS011;2586;48.710;9.202;2023-03-04T08:11:09;28.50;;;14.90;;
5135;SDS011;2586;48.710;9.202;2023-03-04T08:13:36;31.57;;;16.40;;
5135;SDS011;2586;48.710;9.202;2023-03-04T08:16:02;30.37;;;15.93;;
5135;SDS011;2586;48.710;9.202;2023-03-04T08:18:29;28.47;;;15.20;;
5135;SDS011;2586;48.710;9.202;2023-03-04T08:20:54;34.10;;;16.43;;
5135;SDS011;2586;48.710;9.202;2023-03-04T08:23:20;35.67;;;17.10;;
5135;SDS011;2586;48.710;9.202;2023-03-04T08:25:46;27.03;;;14.47;;
5135;SDS011;2586;48.710;9.202;2023-03-04T08:28:12;37.37;;;17.43;;
5135;SDS011;2586;48.710;9.202;2023-03-04T08:30:38;38.87;;;16.37;;
5135;SDS011;2586;48.710;9.202;2023-03-04T08:33:04;30.77;;;17.20;;
5135;SDS011;2586;48.710;9.202;2023-03-04T08:35:32;44.33;;;17.77;;
5135;SDS011;2586;48.710;9.202;2023-03-04T08:38:00;36.30;;;16.97;;
5135;SDS011;2586;48.710;9.202;2023-03-04T08:40:26;40.77;;;17.67;;
5135;SDS011;2586;48.710;9.202;2023-03-04T08:42:51;36.00;;;17.23;;
5135;SDS011;2586;48.710;9.202;2023-03-04T08:45:17;40.40;;;17.43;;
5135;SDS011;2586;48.710;9.202;2023-03-04T08:47:43;30.70;;;16.53;;
5135;SDS011;2586;48.710;9.202;2023-03-04T08:50:09;31.70;;;13.63;;
5135;SDS011;2586;48.710;9.202;2023-03-04T08:52:35;39.17;;;16.57;;
5135;SDS011;2586;48.710;9.202;2023-03-04T08:55:00;37.07;;;17.73;;
5135;SDS011;2586;48.710;9.202;2023-03-04T08:57:26;34.20;;;17.03;;
5135;SDS011;2586;48.710;9.202;2023-03-04T08:59:52;35.73;;;15.10;;
5135;SDS011;2586;48.710;9.202;2023-03-04T09:02:17;33.70;;;16.10;;
5135;SDS011;2586;48.710;9.202;2023-03-04T09:04:43;38.00;;;16.03;;
5135;SDS011;2586;48.710;9.202;2023-03-04T09:07:09;38.47;;;17.17;;
5135;SDS011;2586;48.710;9.202;2023-03-04T09:09:35;32.83;;;17.00;;
5135;SDS011;2586;48.710;9.202;2023-03-04T09:12:00;33.17;;;15.80;;
5135;SDS011;2586;48.710;9.202;2023-03-04T09:14:26;31.73;;;16.33;;
5135;SDS011;2586;48.710;9.202;2023-03-04T09:16:52;37.47;;;15.17;;
5135;SDS011;2586;48.710;9.202;2023-03-04T09:19:18;42.37;;;16.63;;
5135;SDS011;2586;48.710;9.202;2023-03-04T09:21:43;31.90;;;15.70;;
5135;SDS011;2586;48.710;9.202;2023-03-04T09:24:09;41.97;;;14.70;;
5135;SDS011;2586;48.710;9.202;2023-03-04T09:26:34;32.90;;;16.13;;
5135;SDS011;2586;48.710;9.202;2023-03-04T09:29:01;34.30;;;15.97;;
5135;SDS011;2586;48.710;9.202;2023-03-04T09:31:27;33.03;;;16.50;;
5135;SDS011;2586;48.710;9.202;2023-03-04T09:33:53;32.83;;;16.70;;
5135;SDS011;2586;48.710;9.202;2023-03-04T09:36:21;29.67;;;16.07;;
5135;SDS011;2586;48.710;9.202;2023-03-04T09:38:46;35.27;;;14.70;;
5135;SDS011;2586;48.710;9.202;2023-03-04T09:41:14;38.33;;;18.60;;
5135;SDS011;2586;48.710;9.202;2023-03-04T09:43:51;31.83;;;16.33;;
5135;SDS011;2586;48.710;9.202;2023-03-04T09:46:21;33.87;;;17.17;;
5135;SDS011;2586;48.710;9.202;2023-03-04T09:48:53;42.77;;;17.70;;
5135;SDS011;2586;48.710;9.202;2023-03-04T09:51:21;31.20;;;16.43;;
5135;SDS011;2586;48.710;9.202;2023-03-04T09:54:06;32.70;;;15.57;;
5135;SDS011;2586;48.710;9.202;2023-03-04T09:56:38;37.37;;;15.43;;
5135;SDS011;2586;48.710;9.202;2023-03-04T09:59:10;32.73;;;17.53;;
5135;SDS011;2586;48.710;9.202;2023-03-04T10:01:54;31.27;;;16.70;;
5135;SDS011;2586;48.710;9.202;2023-03-04T10:06:58;38.77;;;16.80;;
5135;SDS011;2586;48.710;9.202;2023-03-04T10:09:46;37.00;;;16.30;;
5135;SDS011;2586;48.710;9.202;2023-03-04T10:12:19;32.53;;;17.70;;
5135;SDS011;2586;48.710;9.202;2023-03-04T10:20:15;34.47;;;17.90;;
5135;SDS011;2586;48.710;9.202;2023-03-04T10:22:49;34.67;;;17.67;;
5135;SDS011;2586;48.710;9.202;2023-03-04T10:27:51;34.47;;;18.77;;
5135;SDS011;2586;48.710;9.202;2023-03-04T10:33:11;38.53;;;18.53;;
5135;SDS011;2586;48.710;9.202;2023-03-04T10:35:38;39.83;;;20.37;;
5135;SDS011;2586;48.710;9.202;2023-03-04T10:38:07;36.10;;;18.30;;
5135;SDS011;2586;48.710;9.202;2023-03-04T10:40:37;38.80;;;19.13;;
5135;SDS011;2586;48.710;9.202;2023-03-04T10:43:04;38.73;;;20.27;;
5135;SDS011;2586;48.710;9.202;2023-03-04T10:45:32;37.13;;;18.90;;
5135;SDS011;2586;48.710;9.202;2023-03-04T10:48:02;41.53;;;20.03;;
5135;SDS011;2586;48.710;9.202;2023-03-04T10:50:28;33.43;;;19.60;;
5135;SDS011;2586;48.710;9.202;2023-03-04T10:52:54;41.00;;;18.63;;
5135;SDS011;2586;48.710;9.202;2023-03-04T10:55:25;45.57;;;21.30;;
5135;SDS011;2586;48.710;9.202;2023-03-04T10:57:54;35.97;;;19.20;;
5135;SDS011;2586;48.710;9.202;2023-03-04T11:00:31;39.07;;;19.60;;
5135;SDS011;2586;48.710;9.202;2023-03-04T11:05:52;38.93;;;21.33;;
5135;SDS011;2586;48.710;9.202;2023-03-04T11:08:37;35.50;;;20.07;;
5135;SDS011;2586;48.710;9.202;2023-03-04T11:11:19;38.10;;;21.80;;
5135;SDS011;2586;48.710;9.202;2023-03-04T11:14:11;38.77;;;19.70;;
5135;SDS011;2586;48.710;9.202;2023-03-04T11:16:51;43.07;;;20.80;;
5135;SDS011;2586;48.710;9.202;2023-03-04T11:19:22;39.07;;;20.53;;
5135;SDS011;2586;48.710;9.202;2023-03-04T11:21:53;38.47;;;20.93;;
5135;SDS011;2586;48.710;9.202;2023-03-04T11:24:24;36.30;;;22.20;;
5135;SDS011;2586;48.710;9.202;2023-03-04T11:26:54;45.03;;;23.90;;
5135;SDS011;2586;48.710;9.202;2023-03-04T11:29:22;41.87;;;22.57;;
5135;SDS011;2586;48.710;9.202;2023-03-04T11:32:13;45.50;;;23.37;;
5135;SDS011;2586;48.710;9.202;2023-03-04T11:34:49;47.43;;;24.40;;
5135;SDS011;2586;48.710;9.202;2023-03-04T11:37:21;45.87;;;24.43;;
5135;SDS011;2586;48.710;9.202;2023-03-04T11:40:02;42.97;;;23.27;;
5135;SDS011;2586;48.710;9.202;2023-03-04T11:45:16;47.07;;;25.47;;
5135;SDS011;2586;48.710;9.202;2023-03-04T11:47:55;51.30;;;24.60;;
5135;SDS011;2586;48.710;9.202;2023-03-04T11:50:39;47.53;;;26.00;;
5135;SDS011;2586;48.710;9.202;2023-03-04T11:56:34;48.97;;;24.77;;
5135;SDS011;2586;48.710;9.202;2023-03-04T11:59:16;47.10;;;25.03;;
5135;SDS011;2586;48.710;9.202;2023-03-04T12:05:02;51.77;;;25.97;;
5135;SDS011;2586;48.710;9.202;2023-03-04T12:10:35;50.17;;;26.53;;
5135;SDS011;2586;48.710;9.202;2023-03-04T12:40:48;49.83;;;26.00;;
5135;SDS011;2586;48.710;9.202;2023-03-04T12:54:02;44.50;;;23.10;;
5135;SDS011;2586;48.710;9.202;2023-03-04T12:56:40;42.30;;;21.47;;
5135;SDS011;2586;48.710;9.202;2023-03-04T12:59:16;43.97;;;26.47;;
5135;SDS011;2586;48.710;9.202;2023-03-04T13:07:43;45.30;;;24.00;;
5135;SDS011;2586;48.710;9.202;2023-03-04T13:10:30;47.20;;;23.90;;
5135;SDS011;2586;48.710;9.202;2023-03-04T13:12:59;48.00;;;24.20;;
5135;SDS011;2586;48.710;9.202;2023-03-04T13:15:28;48.70;;;25.67;;
5135;SDS011;2586;48.710;9.202;2023-03-04T13:17:58;46.33;;;24.03;;
5135;SDS011;2586;48.710;9.202;2023-03-04T13:23:00;43.77;;;23.90;;
5135;SDS011;2586;48.710;9.202;2023-03-04T13:28:29;45.23;;;21.83;;
5135;SDS011;2586;48.710;9.202;2023-03-04T13:33:43;42.40;;;22.80;;
5135;SDS011;2586;48.710;9.202;2023-03-04T13:41:45;43.13;;;23.00;;
5135;SDS011;2586;48.710;9.202;2023-03-04T13:46:57;47.43;;;24.67;;
5135;SDS011;2586;48.710;9.202;2023-03-04T13:49:45;57.03;;;26.17;;
5135;SDS011;2586;48.710;9.202;2023-03-04T13:58:17;47.13;;;24.20;;
5135;SDS011;2586;48.710;9.202;2023-03-04T14:00:48;58.33;;;26.70;;
5135;SDS011;2586;48.710;9.202;2023-03-04T14:03:19;47.83;;;25.33;;
5135;SDS011;2586;48.710;9.202;2023-03-04T14:08:34;51.83;;;26.00;;
5135;SDS011;2586;48.710;9.202;2023-03-04T14:10:59;53.23;;;27.10;;
5135;SDS011;2586;48.710;9.202;2023-03-04T14:13:25;52.97;;;25.47;;
5135;SDS011;2586;48.710;9.202;2023-03-04T14:15:55;41.77;;;23.57;;
5135;SDS011;2586;48.710;9.202;2023-03-04T14:18:22;55.07;;;23.40;;
5135;SDS011;2586;48.710;9.202;2023-03-04T14:20:49;51.10;;;23.23;;
5135;SDS011;2586;48.710;9.202;2023-03-04T14:23:28;39.73;;;20.70;;
5135;SDS011;2586;48.710;9.202;2023-03-04T14:26:29;38.13;;;19.70;;
5135;SDS011;2586;48.710;9.202;2023-03-04T14:28:49;35.93;;;17.67;;
5135;SDS011;2586;48.710;9.202;2023-03-04T14:31:17;33.37;;;17.10;;
5135;SDS011;2586;48.710;9.202;2023-03-04T14:33:45;36.60;;;17.57;;
5135;SDS011;2586;48.710;9.202;2023-03-04T14:36:22;34.60;;;18.07;;
5135;SDS011;2586;48.710;9.202;2023-03-04T14:38:55;31.60;;;16.67;;
5135;SDS011;2586;48.710;9.202;2023-03-04T14:41:33;33.50;;;16.80;;
5135;SDS011;2586;48.710;9.202;2023-03-04T14:46:47;38.30;;;16.53;;
5135;SDS011;2586;48.710;9.202;2023-03-04T14:49:15;30.10;;;15.40;;
5135;SDS011;2586;48.710;9.202;2023-03-04T14:51:42;30.83;;;14.40;;
5135;SDS011;2586;48.710;9.202;2023-03-04T14:54:24;37.53;;;15.93;;
5135;SDS011;2586;48.710;9.202;2023-03-04T14:56:57;32.23;;;14.97;;
5135;SDS011;2586;48.710;9.202;2023-03-04T14:59:28;38.37;;;16.80;;
5135;SDS011;2586;48.710;9.202;2023-03-04T15:02:07;36.23;;;17.60;;
5135;SDS011;2586;48.710;9.202;2023-03-04T15:04:45;35.53;;;17.73;;
5135;SDS011;2586;48.710;9.202;2023-03-04T15:07:16;38.00;;;17.80;;
5135;SDS011;2586;48.710;9.202;2023-03-04T15:09:49;38.20;;;17.27;;
5135;SDS011;2586;48.710;9.202;2023-03-04T15:12:35;38.23;;;17.40;;
5135;SDS011;2586;48.710;9.202;2023-03-04T15:15:30;43.50;;;18.80;;
5135;SDS011;2586;48.710;9.202;2023-03-04T15:17:58;41.97;;;18.40;;
5135;SDS011;2586;48.710;9.202;2023-03-04T15:20:26;39.17;;;18.87;;
5135;SDS011;2586;48.710;9.202;2023-03-04T15:25:19;40.73;;;19.27;;
5135;SDS011;2586;48.710;9.202;2023-03-04T15:27:45;61.20;;;21.63;;
5135;SDS011;2586;48.710;9.202;2023-03-04T15:30:18;54.37;;;18.87;;
5135;SDS011;2586;48.710;9.202;2023-03-04T15:32:48;50.17;;;20.23;;
5135;SDS011;2586;48.710;9.202;2023-03-04T15:35:15;47.23;;;20.03;;
5135;SDS011;2586;48.710;9.202;2023-03-04T15:37:42;34.47;;;18.60;;
5135;SDS011;2586;48.710;9.202;2023-03-04T15:43:02;44.10;;;15.67;;
5135;SDS011;2586;48.710;9.202;2023-03-04T15:45:32;40.40;;;17.03;;
5135;SDS011;2586;48.710;9.202;2023-03-04T15:48:01;54.10;;;16.80;;
5135;SDS011;2586;48.710;9.202;2023-03-04T15:50:35;36.90;;;16.17;;
5135;SDS011;2586;48.710;9.202;2023-03-04T15:53:14;41.40;;;16.73;;
5135;SDS011;2586;48.710;9.202;2023-03-04T15:55:59;51.77;;;16.23;;
5135;SDS011;2586;48.710;9.202;2023-03-04T15:58:26;39.20;;;16.27;;
5135;SDS011;2586;48.710;9.202;2023-03-04T16:00:53;43.27;;;16.20;;
5135;SDS011;2586;48.710;9.202;2023-03-04T16:03:19;45.03;;;17.47;;
5135;SDS011;2586;48.710;9.202;2023-03-04T16:05:46;35.73;;;15.57;;
5135;SDS011;2586;48.710;9.202;2023-03-04T16:08:14;43.70;;;17.17;;
5135;SDS011;2586;48.710;9.202;2023-03-04T16:10:42;47.13;;;16.90;;
5135;SDS011;2586;48.710;9.202;2023-03-04T16:13:12;37.20;;;16.60;;
5135;SDS011;2586;48.710;9.202;2023-03-04T16:15:40;36.83;;;17.77;;
5135;SDS011;2586;48.710;9.202;2023-03-04T16:18:07;41.60;;;17.70;;
5135;SDS011;2586;48.710;9.202;2023-03-04T16:20:33;43.43;;;16.37;;
5135;SDS011;2586;48.710;9.202;2023-03-04T16:22:59;36.07;;;16.60;;
5135;SDS011;2586;48.710;9.202;2023-03-04T16:25:26;45.17;;;18.60;;
5135;SDS011;2586;48.710;9.202;2023-03-04T16:27:53;36.73;;;16.13;;
5135;SDS011;2586;48.710;9.202;2023-03-04T16:30:29;73.40;;;16.20;;
5135;SDS011;2586;48.710;9.202;2023-03-04T16:32:55;51.70;;;17.50;;
5135;SDS011;2586;48.710;9.202;2023-03-04T16:35:21;50.50;;;16.90;;
5135;SDS011;2586;48.710;9.202;2023-03-04T16:37:51;42.83;;;18.10;;
5135;SDS011;2586;48.710;9.202;2023-03-04T16:40:24;51.97;;;19.80;;
5135;SDS011;2586;48.710;9.202;2023-03-04T16:42:51;36.57;;;17.63;;
5135;SDS011;2586;48.710;9.202;2023-03-04T16:45:22;50.20;;;19.30;;
5135;SDS011;2586;48.710;9.202;2023-03-04T16:47:49;43.83;;;18.13;;
5135;SDS011;2586;48.710;9.202;2023-03-04T16:50:16;43.57;;;17.30;;